createdAt,value
2018-06-03T00:01:10.455Z,20.82
2018-06-03T00:03:38.641Z,20.79
2018-06-03T00:06:06.905Z,20.74
2018-06-03T00:08:35.083Z,20.73
2018-06-03T00:11:03.266Z,20.70
2018-06-03T00:13:31.478Z,20.73
2018-06-03T00:15:59.660Z,20.68
2018-06-03T00:18:27.868Z,20.66
2018-06-03T00:21:07.692Z,20.57
2018-06-03T00:23:35.903Z,20.60
2018-06-03T00:26:04.433Z,20.57
2018-06-03T00:28:33.030Z,20.55
2018-06-03T00:31:01.510Z,20.37
2018-06-03T00:33:30.024Z,20.34
2018-06-03T00:36:10.277Z,20.13
2018-06-03T00:38:38.838Z,20.20
2018-06-03T00:41:07.320Z,20.17
2018-06-03T00:43:35.835Z,20.23
2018-06-03T00:46:04.373Z,20.24
2018-06-03T00:48:32.880Z,20.21
2018-06-03T00:51:01.401Z,20.14
2018-06-03T00:53:29.876Z,20.13
2018-06-03T00:55:58.384Z,20.16
2018-06-03T00:58:26.871Z,20.17
2018-06-03T01:00:55.384Z,20.14
2018-06-03T01:03:23.900Z,20.10
2018-06-03T01:05:52.421Z,20.03
2018-06-03T01:08:20.889Z,20.01
2018-06-03T01:10:49.389Z,19.97
2018-06-03T01:13:17.860Z,19.96
2018-06-03T01:15:46.369Z,19.99
2018-06-03T01:18:14.925Z,19.88
2018-06-03T01:20:43.428Z,20.00
2018-06-03T01:23:11.953Z,19.91
2018-06-03T01:25:40.468Z,19.98
2018-06-03T01:28:08.950Z,19.99
2018-06-03T01:30:37.464Z,19.97
2018-06-03T01:33:05.985Z,19.96
2018-06-03T01:35:34.544Z,19.92
2018-06-03T01:38:03.052Z,19.87
2018-06-03T01:40:31.560Z,19.85
2018-06-03T01:43:00.076Z,19.82
2018-06-03T01:45:28.544Z,19.86
2018-06-03T01:47:57.049Z,19.79
2018-06-03T01:50:25.569Z,19.78
2018-06-03T01:52:54.068Z,19.79
2018-06-03T01:55:22.554Z,19.77
2018-06-03T01:57:51.064Z,19.73
2018-06-03T02:00:19.536Z,19.72
2018-06-03T02:02:48.004Z,19.69
2018-06-03T02:05:16.543Z,19.61
2018-06-03T02:07:45.008Z,19.62
2018-06-03T02:10:13.509Z,19.60
2018-06-03T02:12:42.052Z,19.60
2018-06-03T02:15:10.524Z,19.61
2018-06-03T02:17:39.040Z,19.52
2018-06-03T02:20:07.507Z,19.47
2018-06-03T02:22:35.973Z,19.27
2018-06-03T02:25:04.581Z,19.38
2018-06-03T02:27:33.080Z,19.35
2018-06-03T02:30:01.566Z,19.42
2018-06-03T02:32:30.122Z,19.41
2018-06-03T02:34:58.593Z,19.38
2018-06-03T02:37:27.064Z,19.29
2018-06-03T02:39:55.576Z,19.32
2018-06-03T02:42:24.054Z,19.29
2018-06-03T02:44:52.556Z,19.35
2018-06-03T02:47:21.030Z,19.29
2018-06-03T02:49:49.576Z,19.31
2018-06-03T02:52:18.088Z,19.27
2018-06-03T02:54:46.564Z,19.24
2018-06-03T02:57:15.053Z,19.19
2018-06-03T02:59:43.564Z,19.33
2018-06-03T03:02:12.080Z,19.30
2018-06-03T03:04:40.553Z,19.22
2018-06-03T03:07:09.058Z,19.14
2018-06-03T03:09:37.521Z,19.17
2018-06-03T03:12:06.033Z,19.21
2018-06-03T03:14:34.514Z,19.16
2018-06-03T03:17:03.000Z,19.21
2018-06-03T03:19:31.520Z,19.28
2018-06-03T03:22:00.036Z,19.36
2018-06-03T03:24:28.567Z,19.29
2018-06-03T03:26:57.073Z,19.48
2018-06-03T03:29:25.549Z,19.48
2018-06-03T03:31:54.057Z,19.53
2018-06-03T03:34:22.537Z,19.63
2018-06-03T03:36:51.010Z,19.68
2018-06-03T03:39:19.536Z,19.86
2018-06-03T03:41:48.000Z,19.96
2018-06-03T03:44:16.512Z,19.95
2018-06-03T03:46:44.977Z,20.02
2018-06-03T03:49:13.466Z,20.07
2018-06-03T03:51:41.966Z,20.22
2018-06-03T03:54:10.443Z,20.35
2018-06-03T03:56:38.956Z,20.46
2018-06-03T03:59:07.432Z,20.56
2018-06-03T04:01:35.897Z,20.75
2018-06-03T04:04:04.403Z,20.84
2018-06-03T04:06:32.913Z,21.03
2018-06-03T04:09:01.439Z,21.09
2018-06-03T04:11:29.965Z,21.36
2018-06-03T04:13:58.433Z,21.60
2018-06-03T04:16:26.944Z,21.77
2018-06-03T04:18:55.408Z,21.96
2018-06-03T04:21:23.904Z,22.12
2018-06-03T04:23:52.368Z,22.29
2018-06-03T04:26:20.877Z,22.31
2018-06-03T04:28:49.376Z,22.34
2018-06-03T04:31:17.888Z,22.34
2018-06-03T04:33:46.437Z,22.35
2018-06-03T04:36:14.920Z,22.61
2018-06-03T04:38:43.445Z,22.70
2018-06-03T04:41:11.957Z,22.65
2018-06-03T04:43:40.494Z,22.47
2018-06-03T04:46:08.991Z,22.61
2018-06-03T04:48:37.500Z,22.74
2018-06-03T04:51:05.977Z,23.06
2018-06-03T04:53:34.464Z,22.87
2018-06-03T04:56:03.005Z,22.81
2018-06-03T04:58:31.496Z,23.06
2018-06-03T05:01:00.008Z,23.03
2018-06-03T05:03:28.477Z,22.85
2018-06-03T05:05:56.988Z,23.00
2018-06-03T05:08:25.477Z,23.28
2018-06-03T05:10:54.056Z,23.57
2018-06-03T05:13:22.532Z,23.62
2018-06-03T05:15:51.004Z,23.99
2018-06-03T05:18:19.476Z,24.08
2018-06-03T05:20:48.004Z,24.05
2018-06-03T05:23:16.516Z,24.06
2018-06-03T05:25:44.992Z,24.15
2018-06-03T05:28:13.490Z,24.23
2018-06-03T05:30:42.004Z,24.24
2018-06-03T05:33:10.521Z,24.37
2018-06-03T05:35:39.040Z,24.56
2018-06-03T05:38:07.560Z,24.61
2018-06-03T05:40:36.028Z,24.67
2018-06-03T05:43:04.544Z,24.75
2018-06-03T05:45:33.021Z,25.06
2018-06-03T05:48:01.533Z,25.31
2018-06-03T05:50:30.002Z,25.70
2018-06-03T05:52:58.476Z,25.59
2018-06-03T05:55:26.986Z,25.50
2018-06-03T05:57:55.560Z,25.70
2018-06-03T06:00:24.036Z,25.86
2018-06-03T06:02:52.556Z,26.01
2018-06-03T06:05:21.077Z,26.28
2018-06-03T06:07:49.591Z,26.30
2018-06-03T06:10:18.064Z,26.32
2018-06-03T06:12:46.589Z,26.57
2018-06-03T06:15:15.068Z,26.61
2018-06-03T06:17:43.630Z,26.86
2018-06-03T06:20:12.163Z,26.97
2018-06-03T06:22:40.660Z,27.06
2018-06-03T06:25:09.176Z,27.19
2018-06-03T06:27:37.706Z,27.18
2018-06-03T06:30:06.284Z,27.49
2018-06-03T06:32:34.796Z,27.80
2018-06-03T06:35:03.269Z,27.65
2018-06-03T06:37:31.772Z,27.26
2018-06-03T06:40:00.257Z,27.55
2018-06-03T06:42:28.768Z,27.72
2018-06-03T06:44:57.232Z,27.92
2018-06-03T06:47:25.771Z,28.06
2018-06-03T06:49:54.245Z,28.06
2018-06-03T06:52:22.749Z,27.79
2018-06-03T06:54:51.248Z,27.41
2018-06-03T06:57:19.763Z,27.41
2018-06-03T06:59:48.276Z,27.16
2018-06-03T07:02:16.793Z,27.59
2018-06-03T07:04:45.293Z,27.27
2018-06-03T07:07:13.816Z,27.40
2018-06-03T07:09:42.284Z,27.44
2018-06-03T07:12:10.792Z,27.56
2018-06-03T07:14:39.276Z,27.46
2018-06-03T07:17:07.772Z,27.70
2018-06-03T07:19:36.240Z,27.90
2018-06-03T07:22:04.763Z,28.18
2018-06-03T07:24:33.233Z,28.15
2018-06-03T07:27:01.780Z,28.05
2018-06-03T07:29:30.257Z,28.14
2018-06-03T07:31:58.739Z,28.44
2018-06-03T07:34:27.267Z,28.55
2018-06-03T07:36:55.775Z,28.77
2018-06-03T07:39:24.313Z,28.98
2018-06-03T07:41:52.848Z,29.26
2018-06-03T07:44:21.376Z,29.22
2018-06-03T07:46:49.852Z,29.24
2018-06-03T07:49:18.349Z,29.32
2018-06-03T07:51:46.896Z,29.24
2018-06-03T07:54:15.404Z,28.98
2018-06-03T07:56:43.877Z,29.08
2018-06-03T07:59:12.395Z,28.99
2018-06-03T08:01:40.918Z,29.15
2018-06-03T08:04:09.444Z,28.96
2018-06-03T08:06:37.992Z,29.12
2018-06-03T08:09:06.518Z,29.12
2018-06-03T08:11:35.061Z,28.65
2018-06-03T08:14:03.561Z,28.62
2018-06-03T08:16:32.072Z,28.82
2018-06-03T08:19:00.596Z,28.94
2018-06-03T08:21:29.076Z,29.18
2018-06-03T08:23:58.201Z,28.93
2018-06-03T08:26:26.684Z,29.19
2018-06-03T08:28:55.198Z,29.17
2018-06-03T08:31:23.673Z,29.00
2018-06-03T08:33:52.161Z,29.37
2018-06-03T08:36:20.648Z,29.38
2018-06-03T08:38:49.171Z,29.66
2018-06-03T08:41:17.687Z,29.86
2018-06-03T08:43:46.260Z,29.58
2018-06-03T08:46:14.792Z,30.06
2018-06-03T08:48:43.338Z,30.08
2018-06-03T08:51:11.853Z,30.25
2018-06-03T08:53:40.328Z,30.22
2018-06-03T08:56:08.848Z,30.16
2018-06-03T08:58:37.390Z,30.05
2018-06-03T09:01:05.934Z,29.99
2018-06-03T09:03:34.408Z,30.27
2018-06-03T09:06:02.880Z,30.28
2018-06-03T09:08:31.432Z,30.37
2018-06-03T09:10:59.951Z,30.27
2018-06-03T09:13:28.433Z,30.41
2018-06-03T09:15:56.970Z,30.36
2018-06-03T09:18:25.485Z,30.44
2018-06-03T09:21:26.726Z,30.37
2018-06-03T09:23:56.597Z,30.61
2018-06-03T09:26:27.105Z,30.71
2018-06-03T09:28:56.933Z,30.66
2018-06-03T09:31:26.749Z,30.75
2018-06-03T09:33:56.522Z,31.01
2018-06-03T09:36:26.363Z,31.13
2018-06-03T09:38:56.150Z,31.05
2018-06-03T09:41:25.990Z,31.09
2018-06-03T09:43:55.844Z,31.08
2018-06-03T09:46:25.691Z,31.21
2018-06-03T09:48:55.580Z,31.25
2018-06-03T09:51:25.440Z,31.44
2018-06-03T09:53:55.302Z,31.59
2018-06-03T09:56:25.125Z,31.93
2018-06-03T09:58:54.920Z,31.75
2018-06-03T10:01:24.769Z,31.60
2018-06-03T10:03:54.596Z,31.85
2018-06-03T10:06:24.432Z,31.99
2018-06-03T10:08:54.277Z,31.86
2018-06-03T10:11:24.073Z,32.09
2018-06-03T10:13:53.886Z,32.19
2018-06-03T10:16:23.717Z,32.14
2018-06-03T10:18:53.546Z,32.14
2018-06-03T10:21:23.407Z,32.09
2018-06-03T10:23:53.192Z,32.01
2018-06-03T10:26:23.062Z,32.31
2018-06-03T10:28:52.889Z,32.48
2018-06-03T10:31:28.939Z,32.68
2018-06-03T10:33:59.423Z,32.35
2018-06-03T10:36:29.203Z,32.43
2018-06-03T10:38:59.032Z,32.34
2018-06-03T10:41:28.868Z,32.54
2018-06-03T10:43:58.713Z,32.79
2018-06-03T10:46:28.561Z,33.01
2018-06-03T10:48:58.384Z,32.78
2018-06-03T10:51:28.189Z,33.04
2018-06-03T10:53:58.025Z,33.06
2018-06-03T10:56:27.827Z,33.26
2018-06-03T10:58:57.692Z,33.15
2018-06-03T11:01:27.503Z,32.95
2018-06-03T11:03:57.345Z,33.24
2018-06-03T11:06:27.133Z,33.32
2018-06-03T11:08:56.978Z,33.50
2018-06-03T11:11:26.902Z,33.79
2018-06-03T11:13:56.707Z,34.05
2018-06-03T11:16:27.241Z,34.17
2018-06-03T11:18:57.041Z,34.21
2018-06-03T11:21:26.918Z,34.49
2018-06-03T11:23:56.709Z,34.63
2018-06-03T11:26:26.553Z,34.56
2018-06-03T11:28:56.363Z,34.60
2018-06-03T11:31:26.201Z,34.76
2018-06-03T11:33:55.981Z,34.51
2018-06-03T11:36:25.806Z,34.36
2018-06-03T11:38:55.593Z,34.29
2018-06-03T11:41:25.424Z,34.25
2018-06-03T11:43:55.321Z,33.82
2018-06-03T11:46:25.182Z,33.35
2018-06-03T11:48:55.050Z,33.25
2018-06-03T11:51:24.916Z,32.88
2018-06-03T11:53:54.714Z,32.75
2018-06-03T11:56:34.164Z,32.70
2018-06-03T11:59:10.920Z,32.00
2018-06-03T12:01:40.779Z,31.67
2018-06-03T12:04:10.600Z,31.43
2018-06-03T12:06:40.477Z,31.27
2018-06-03T12:09:10.417Z,31.11
2018-06-03T12:11:40.253Z,31.21
2018-06-03T12:14:10.114Z,31.33
2018-06-03T12:16:39.930Z,31.10
2018-06-03T12:19:09.760Z,31.26
2018-06-03T12:21:39.580Z,31.17
2018-06-03T12:24:09.408Z,31.19
2018-06-03T12:26:39.192Z,31.32
2018-06-03T12:29:09.065Z,31.15
2018-06-03T12:31:38.849Z,31.35
2018-06-03T12:34:08.714Z,31.02
2018-06-03T12:36:38.548Z,31.38
2018-06-03T12:39:09.720Z,31.60
2018-06-03T12:41:39.652Z,31.63
2018-06-03T12:44:09.504Z,31.79
2018-06-03T12:46:39.310Z,31.75
2018-06-03T12:49:09.184Z,31.84
2018-06-03T12:51:38.999Z,32.08
2018-06-03T12:54:08.837Z,32.27
2018-06-03T12:56:38.660Z,32.41
2018-06-03T12:59:08.500Z,32.73
2018-06-03T13:01:38.337Z,32.93
2018-06-03T13:04:08.149Z,32.99
2018-06-03T13:06:37.976Z,33.12
2018-06-03T13:09:08.056Z,33.42
2018-06-03T13:11:37.864Z,33.48
2018-06-03T13:14:07.695Z,33.63
2018-06-03T13:16:37.564Z,33.61
2018-06-03T13:19:07.401Z,33.90
2018-06-03T13:21:37.204Z,33.92
2018-06-03T13:24:07.004Z,33.92
2018-06-03T13:26:36.825Z,34.00
2018-06-03T13:29:06.652Z,34.06
2018-06-03T13:31:36.494Z,34.21
2018-06-03T13:34:06.416Z,34.44
2018-06-03T13:36:36.236Z,34.49
2018-06-03T13:39:07.674Z,34.45
2018-06-03T13:41:37.533Z,34.60
2018-06-03T13:44:07.317Z,34.47
2018-06-03T13:46:37.146Z,34.29
2018-06-03T13:49:06.988Z,34.33
2018-06-03T13:51:36.781Z,34.59
2018-06-03T13:54:06.647Z,34.58
2018-06-03T13:56:36.470Z,34.34
2018-06-03T13:59:06.304Z,34.44
2018-06-03T14:01:36.099Z,34.69
2018-06-03T14:04:05.984Z,34.44
2018-06-03T14:06:35.805Z,34.57
2018-06-03T14:09:07.090Z,34.74
2018-06-03T14:11:36.929Z,34.73
2018-06-03T14:14:06.745Z,34.78
2018-06-03T14:16:36.582Z,34.75
2018-06-03T14:19:06.388Z,34.67
2018-06-03T14:21:36.188Z,34.39
2018-06-03T14:24:05.996Z,35.06
2018-06-03T14:26:35.797Z,35.04
2018-06-03T14:29:05.589Z,34.89
2018-06-03T14:31:35.408Z,34.48
2018-06-03T14:34:05.193Z,34.33
2018-06-03T14:36:34.961Z,34.47
2018-06-03T14:39:06.616Z,34.37
2018-06-03T14:41:36.373Z,34.26
2018-06-03T14:44:06.218Z,34.41
2018-06-03T14:46:36.016Z,34.01
2018-06-03T14:49:05.828Z,34.12
2018-06-03T14:51:35.638Z,33.80
2018-06-03T14:54:05.456Z,33.36
2018-06-03T14:56:35.252Z,33.06
2018-06-03T14:59:04.970Z,32.97
2018-06-03T15:01:34.781Z,32.53
2018-06-03T15:04:04.581Z,32.55
2018-06-03T15:06:34.448Z,32.27
2018-06-03T15:09:06.177Z,32.07
2018-06-03T15:11:36.301Z,31.83
2018-06-03T15:14:06.088Z,31.92
2018-06-03T15:16:35.891Z,31.87
2018-06-03T15:19:05.716Z,31.80
2018-06-03T15:21:35.560Z,31.63
2018-06-03T15:24:05.493Z,31.62
2018-06-03T15:26:35.270Z,31.27
2018-06-03T15:29:05.284Z,30.78
2018-06-03T15:31:35.137Z,30.89
2018-06-03T15:34:04.909Z,30.84
2018-06-03T15:36:34.772Z,30.52
2018-06-03T15:39:06.385Z,30.49
2018-06-03T15:41:36.153Z,30.23
2018-06-03T15:44:06.018Z,30.29
2018-06-03T15:46:35.816Z,30.27
2018-06-03T15:49:05.629Z,30.27
2018-06-03T15:51:35.520Z,30.31
2018-06-03T15:54:05.277Z,30.17
2018-06-03T15:56:35.165Z,30.25
2018-06-03T15:59:05.032Z,30.26
2018-06-03T16:01:35.794Z,30.14
2018-06-03T16:04:05.644Z,30.17
2018-06-03T16:06:35.417Z,30.22
2018-06-03T16:09:06.664Z,30.11
2018-06-03T16:11:36.473Z,30.25
2018-06-03T16:14:06.290Z,30.26
2018-06-03T16:16:36.128Z,30.24
2018-06-03T16:19:06.069Z,30.12
2018-06-03T16:21:35.880Z,30.18
2018-06-03T16:24:05.760Z,30.24
2018-06-03T16:26:35.563Z,30.23
2018-06-03T16:29:05.438Z,30.18
2018-06-03T16:31:35.200Z,30.23
2018-06-03T16:34:05.083Z,30.21
2018-06-03T16:36:34.932Z,30.18
2018-06-03T16:39:05.936Z,30.23
2018-06-03T16:41:35.781Z,30.27
2018-06-03T16:44:05.642Z,30.27
2018-06-03T16:46:35.497Z,30.24
2018-06-03T16:49:05.464Z,30.19
2018-06-03T16:51:35.276Z,30.20
2018-06-03T16:54:05.101Z,30.13
2018-06-03T16:56:34.865Z,30.05
2018-06-03T16:59:04.704Z,29.94
2018-06-03T17:01:34.514Z,29.81
2018-06-03T17:04:04.346Z,29.80
2018-06-03T17:06:34.181Z,29.70
2018-06-03T17:09:04.857Z,29.62
2018-06-03T17:11:34.761Z,29.43
2018-06-03T17:14:04.599Z,29.32
2018-06-03T17:16:34.381Z,29.30
2018-06-03T17:19:04.209Z,29.26
2018-06-03T17:21:33.985Z,29.15
2018-06-03T17:24:03.788Z,29.13
2018-06-03T17:26:33.559Z,29.06
2018-06-03T17:29:03.379Z,29.06
2018-06-03T17:31:33.204Z,29.01
2018-06-03T17:34:03.012Z,28.91
2018-06-03T17:36:32.821Z,28.86
2018-06-03T17:39:02.642Z,28.79
2018-06-03T17:41:32.408Z,28.76
2018-06-03T17:44:02.212Z,28.63
2018-06-03T17:46:31.981Z,28.56
2018-06-03T17:49:01.838Z,28.49
2018-06-03T17:51:31.632Z,28.50
2018-06-03T17:54:01.437Z,28.47
2018-06-03T17:56:31.189Z,28.40
2018-06-03T17:59:00.988Z,28.40
2018-06-03T18:01:30.750Z,28.18
2018-06-03T18:04:00.598Z,28.05
2018-06-03T18:06:30.449Z,28.07
2018-06-03T18:09:00.221Z,27.92
2018-06-03T18:11:30.054Z,27.88
2018-06-03T18:13:59.809Z,27.78
2018-06-03T18:16:29.607Z,27.70
2018-06-03T18:18:59.412Z,27.19
2018-06-03T18:21:29.213Z,27.67
2018-06-03T18:23:59.200Z,27.53
2018-06-03T18:26:29.060Z,27.51
2018-06-03T18:28:58.860Z,27.35
2018-06-03T18:31:28.669Z,27.31
2018-06-03T18:33:58.464Z,27.33
2018-06-03T18:36:28.279Z,27.27
2018-06-03T18:38:58.088Z,27.19
2018-06-03T18:41:27.894Z,27.16
2018-06-03T18:43:57.737Z,27.16
2018-06-03T18:46:27.603Z,27.08
2018-06-03T18:48:57.349Z,27.00
2018-06-03T18:51:27.191Z,26.88
2018-06-03T18:53:56.982Z,26.19
2018-06-03T18:56:26.776Z,26.75
2018-06-03T18:58:56.600Z,26.66
2018-06-03T19:01:26.348Z,26.60
2018-06-03T19:03:56.166Z,26.56
2018-06-03T19:06:26.037Z,26.46
2018-06-03T19:08:55.934Z,26.41
2018-06-03T19:11:25.695Z,26.28
2018-06-03T19:13:55.524Z,26.27
2018-06-03T19:16:25.308Z,26.19
2018-06-03T19:18:55.112Z,26.21
2018-06-03T19:21:24.893Z,26.15
2018-06-03T19:23:54.693Z,26.11
2018-06-03T19:26:24.497Z,25.98
2018-06-03T19:28:54.311Z,25.98
2018-06-03T19:31:24.148Z,25.82
2018-06-03T19:33:53.985Z,25.84
2018-06-03T19:36:23.757Z,25.74
2018-06-03T19:38:53.565Z,25.66
2018-06-03T19:41:23.367Z,25.65
2018-06-03T19:43:53.162Z,25.48
2018-06-03T19:46:22.928Z,25.40
2018-06-03T19:48:52.749Z,25.35
2018-06-03T19:51:22.610Z,25.27
2018-06-03T19:53:52.364Z,25.18
2018-06-03T19:56:22.187Z,25.17
2018-06-03T19:58:51.940Z,25.15
2018-06-03T20:01:21.746Z,25.13
2018-06-03T20:03:51.555Z,25.05
2018-06-03T20:06:21.386Z,25.04
2018-06-03T20:08:51.132Z,25.00
2018-06-03T20:11:20.964Z,24.92
2018-06-03T20:13:50.783Z,24.80
2018-06-03T20:16:20.603Z,24.78
2018-06-03T20:18:50.392Z,24.74
2018-06-03T20:21:20.223Z,24.60
2018-06-03T20:23:49.984Z,24.56
2018-06-03T20:26:19.784Z,24.40
2018-06-03T20:28:49.521Z,24.38
2018-06-03T20:31:19.364Z,24.41
2018-06-03T20:33:49.162Z,24.43
2018-06-03T20:36:19.012Z,24.33
2018-06-03T20:38:48.824Z,24.35
2018-06-03T20:41:18.815Z,24.33
2018-06-03T20:43:48.639Z,24.28
2018-06-03T20:46:18.399Z,24.27
2018-06-03T20:48:48.212Z,24.25
2018-06-03T20:51:18.013Z,24.23
2018-06-03T20:53:47.789Z,24.21
2018-06-03T20:56:17.588Z,24.16
2018-06-03T20:58:47.348Z,24.09
2018-06-03T21:01:17.152Z,23.91
2018-06-03T21:03:46.915Z,23.88
2018-06-03T21:06:16.742Z,23.94
2018-06-03T21:08:46.511Z,23.98
2018-06-03T21:11:16.313Z,23.96
2018-06-03T21:13:46.063Z,23.95
2018-06-03T21:16:15.869Z,23.86
2018-06-03T21:18:45.636Z,23.80
2018-06-03T21:21:15.434Z,23.83
2018-06-03T21:23:45.196Z,23.83
2018-06-03T21:26:14.992Z,23.77
2018-06-03T21:28:44.792Z,23.78
2018-06-03T21:31:14.549Z,23.79
2018-06-03T21:33:44.352Z,23.63
2018-06-03T21:36:14.116Z,23.66
2018-06-03T21:38:43.912Z,23.71
2018-06-03T21:41:13.685Z,23.66
2018-06-03T21:43:43.515Z,23.67
2018-06-03T21:46:13.351Z,23.69
2018-06-03T21:48:43.109Z,23.68
2018-06-03T21:51:12.932Z,23.67
2018-06-03T21:53:42.688Z,23.67
2018-06-03T21:56:12.516Z,23.79
2018-06-03T21:58:42.308Z,23.77
2018-06-03T22:01:12.118Z,23.73
2018-06-03T22:03:41.921Z,23.78
2018-06-03T22:06:11.728Z,23.73
2018-06-03T22:08:41.550Z,23.80
2018-06-03T22:11:11.329Z,23.85
2018-06-03T22:13:41.121Z,23.93
2018-06-03T22:16:10.917Z,23.97
2018-06-03T22:18:40.758Z,24.00
2018-06-03T22:21:10.525Z,24.04
2018-06-03T22:23:40.334Z,24.08
2018-06-03T22:26:10.098Z,24.10
2018-06-03T22:28:39.899Z,24.08
2018-06-03T22:31:10.004Z,24.07
2018-06-03T22:33:39.805Z,24.06
2018-06-03T22:36:09.578Z,24.04
2018-06-03T22:38:39.404Z,24.00
2018-06-03T22:41:09.257Z,24.01
2018-06-03T22:43:39.036Z,24.00
2018-06-03T22:46:08.845Z,23.89
2018-06-03T22:48:38.621Z,23.83
2018-06-03T22:51:08.438Z,23.83
2018-06-03T22:53:38.204Z,23.85
2018-06-03T22:56:08.045Z,23.90
2018-06-03T22:58:37.816Z,23.84
2018-06-03T23:01:07.662Z,23.85
2018-06-03T23:03:37.473Z,23.86
2018-06-03T23:06:07.335Z,23.79
2018-06-03T23:08:37.208Z,23.76
2018-06-03T23:11:07.076Z,23.87
2018-06-03T23:13:36.937Z,23.83
2018-06-03T23:16:06.736Z,23.88
2018-06-03T23:18:36.568Z,23.88
2018-06-03T23:21:06.377Z,23.88
2018-06-03T23:23:36.233Z,23.97
2018-06-03T23:26:06.068Z,24.02
2018-06-03T23:28:35.928Z,24.04
2018-06-03T23:31:05.737Z,24.02
2018-06-03T23:33:35.564Z,24.05
2018-06-03T23:36:05.369Z,24.06
2018-06-03T23:38:35.200Z,24.09
2018-06-03T23:41:05.068Z,24.04
2018-06-03T23:43:34.868Z,24.02
2018-06-03T23:46:04.760Z,24.00
2018-06-03T23:48:34.593Z,24.01
2018-06-03T23:51:04.441Z,23.88
2018-06-03T23:53:34.245Z,23.97
2018-06-03T23:56:04.105Z,23.91
2018-06-03T23:58:33.920Z,23.90
